航空気象通報

ウインドサーファーのための航空気象通報による風予報です。

記事のタイトルを入力してください(必須)

2017年03月05日 23時41分34秒 | TAF
羽田空港
TAF RJTT 051105Z 0512/0618 14008KT 9999 FEW030
BECMG 0512/0514 32006KT
BECMG 0600/0603 19010KT
BECMG 0609/0612 34014KT
日本時間5日21時:140度から8ノットの風
21-23時:風が変化
23時-6日09時:320度から6ノットの風
09-12時:風が変化
12-18時:190度から10ノットの風
18-21時:風が変化
21時-7日03時:340度から14ノットの風


静岡空港
TAF RJNS 051106Z 0512/0618 28008KT 9999 FEW030 SCT060
TEMPO 0522/0603 4000 -RA BR FEW005 BKN008
日本時間5日21時-7日03時:280度から8ノットの風

但し、6日07-12時の間:ときどき

福岡空港
TAF RJFF 051105Z 0512/0618 15008KT 9999 FEW035
BECMG 0521/0523 31010KT
TEMPO 0603/0606 31015G25KT
日本時間5日21時-6日06時:150度から8ノットの風
06-08時:風が変化
08時-7日03時:310度から10ノットの風
但し、6日12-15時の間:ときどき310度から15ノット、突風25ノット


那覇空港
TAF ROAH 051107Z 0512/0618 21017KT 9999 FEW020 SCT030
BECMG 0522/0600 36018KT
TEMPO 0523/0603 4000 SHRA FEW008 BKN015 FEW020CB
日本時間5日21時-6日07時:210度から17ノットの風
07-09時:風が変化
09時-7日03時:360度から18ノットの風

但し、6日08-12時の間:ときどき

石垣空港
TAF ROIG 051111Z 0512/0618 22009KT 9999 FEW020 SCT040
BECMG 0522/0600 02015KT
TEMPO 0523/0603 01020G30KT 4000 SHRA FEW008 BKN015 FEW020CB
日本時間5日21時-6日07時:220度から9ノットの風
07-09時:風が変化
09時-7日03時:020度から15ノットの風
但し、6日08-12時の間:ときどき010度から20ノット、突風30ノット


マウイのカフルイ空港
PHOG 051404Z 0514/0612 21006KT P6SM VCSH FEW030 SCT050
TEMPO 0515/0518 VRB06KT 5SM SHRA BR SCT010 BKN030
FM052100 34010KT P6SM VCSH SCT015 BKN035
FM060500 VRB06KT P6SM VCSH SCT015 BKN035 AMD LTD TO VIS AND WIND TIL 051600
ハワイ時間5日04-11時:210度から6ノットの風

但し、05-08時の間:ときどき風向不定6ノットの風、
11-19時:340度から10ノットの風
19時-6日02時:風向不定6ノットの風


サイパン空港
TAF PGSN 051120Z 0512/0612 08010KT P6SM VCSH FEW016 SCT050
FM060100 09016KT P6SM VCSH FEW018 SCT035 BKN120
マリアナ時間5日22時-6日11時:080度から10ノットの風

11-22時:090度から16ノットの風

ジャンル:
お天気
コメント   この記事についてブログを書く
この記事をはてなブックマークに追加
« 3/3-3/5の航空気象通報 | トップ | 3/6-3/8の航空気象通報 »
最近の画像もっと見る

コメントを投稿

ブログ作成者から承認されるまでコメントは反映されません。

TAF」カテゴリの最新記事

トラックバック

この記事のトラックバック  Ping-URL
ブログ作成者から承認されるまでトラックバックは反映されません。
  • 30日以上前の記事に対するトラックバックは受け取らないよう設定されております。
  • 送信元の記事内容が半角英数のみのトラックバックは受け取らないよう設定されております。
  • このブログへのリンクがない記事からのトラックバックは受け取らないよう設定されております。
  • ※ブログ管理者のみ、編集画面で設定の変更が可能です。